createdAt,value
2023-04-10T00:00:23.243Z,4.63
2023-04-10T00:01:23.253Z,4.60
2023-04-10T00:02:23.341Z,4.61
2023-04-10T00:03:23.454Z,4.53
2023-04-10T00:04:23.333Z,4.64
2023-04-10T00:05:23.306Z,4.53
2023-04-10T00:06:23.302Z,4.50
2023-04-10T00:07:23.315Z,4.57
2023-04-10T00:08:23.321Z,4.49
2023-04-10T00:09:23.329Z,4.46
2023-04-10T00:10:23.346Z,4.48
2023-04-10T00:11:23.355Z,4.50
2023-04-10T00:12:23.366Z,4.48
2023-04-10T00:13:23.374Z,4.48
2023-04-10T00:14:23.389Z,4.48
2023-04-10T00:15:23.396Z,4.46
2023-04-10T00:16:23.472Z,4.43
2023-04-10T00:17:23.488Z,4.43
2023-04-10T00:18:23.436Z,4.43
2023-04-10T00:19:23.444Z,4.45
2023-04-10T00:20:23.496Z,4.32
2023-04-10T00:21:23.469Z,4.43
2023-04-10T00:22:23.470Z,4.40
2023-04-10T00:23:23.482Z,4.42
2023-04-10T00:24:23.494Z,4.34
2023-04-10T00:25:23.512Z,4.39
2023-04-10T00:26:23.514Z,4.38
2023-04-10T00:27:23.524Z,4.28
2023-04-10T00:28:23.538Z,4.30
2023-04-10T00:29:23.546Z,4.36
2023-04-10T00:30:23.567Z,4.30
2023-04-10T00:31:23.598Z,4.31
2023-04-10T00:32:23.861Z,4.36
2023-04-10T00:33:23.594Z,4.32
2023-04-10T00:34:23.602Z,4.22
2023-04-10T00:35:23.609Z,4.36
2023-04-10T00:36:23.624Z,4.25
2023-04-10T00:37:23.631Z,4.27
2023-04-10T00:38:23.642Z,4.22
2023-04-10T00:39:23.657Z,4.27
2023-04-10T00:40:23.665Z,4.30
2023-04-10T00:41:23.674Z,4.28
2023-04-10T00:42:23.687Z,4.27
2023-04-10T00:43:23.694Z,4.22
2023-04-10T00:44:23.709Z,4.16
2023-04-10T00:45:23.718Z,4.14
2023-04-10T00:46:23.750Z,4.13
2023-04-10T00:47:23.760Z,4.10
2023-04-10T00:48:23.749Z,4.24
2023-04-10T00:49:23.758Z,4.20
2023-04-10T00:50:23.768Z,4.09
2023-04-10T00:51:23.778Z,4.13
2023-04-10T00:52:23.797Z,4.10
2023-04-10T00:53:23.798Z,4.18
2023-04-10T00:54:23.808Z,4.03
2023-04-10T00:55:23.823Z,4.13
2023-04-10T00:56:23.836Z,4.13
2023-04-10T00:57:23.839Z,4.04
2023-04-10T00:58:23.853Z,4.06
2023-04-10T00:59:23.861Z,4.10
2023-04-10T01:00:23.884Z,3.96
2023-04-10T01:01:23.910Z,4.09
2023-04-10T01:02:24.003Z,4.04
2023-04-10T01:03:24.252Z,4.06
2023-04-10T01:04:24.093Z,4.10
2023-04-10T01:05:23.924Z,4.04
2023-04-10T01:06:23.936Z,4.06
2023-04-10T01:07:23.944Z,4.06
2023-04-10T01:08:23.953Z,4.06
2023-04-10T01:09:23.963Z,4.03
2023-04-10T01:10:23.975Z,4.04
2023-04-10T01:11:23.981Z,4.04
2023-04-10T01:12:23.997Z,4.00
2023-04-10T01:13:24.005Z,4.03
2023-04-10T01:14:24.017Z,4.02
2023-04-10T01:15:24.024Z,4.00
2023-04-10T01:16:24.096Z,4.02
2023-04-10T01:17:24.073Z,3.95
2023-04-10T01:18:24.055Z,4.06
2023-04-10T01:19:24.066Z,3.89
2023-04-10T01:20:24.092Z,3.95
2023-04-10T01:21:24.091Z,3.92
2023-04-10T01:22:24.097Z,3.92
2023-04-10T01:23:24.108Z,3.92
2023-04-10T01:24:24.119Z,3.94
2023-04-10T01:25:24.127Z,3.91
2023-04-10T01:26:24.141Z,3.89
2023-04-10T01:27:24.145Z,3.94
2023-04-10T01:28:24.159Z,3.88
2023-04-10T01:29:24.175Z,3.86
2023-04-10T01:30:24.189Z,3.82
2023-04-10T01:31:24.210Z,3.88
2023-04-10T01:32:24.235Z,3.81
2023-04-10T01:33:24.212Z,3.86
2023-04-10T01:34:24.279Z,3.86
2023-04-10T01:35:24.282Z,3.81
2023-04-10T01:36:24.254Z,3.81
2023-04-10T01:37:24.271Z,3.84
2023-04-10T01:38:24.267Z,3.81
2023-04-10T01:39:24.273Z,3.85
2023-04-10T01:40:24.283Z,3.82
2023-04-10T01:41:24.297Z,3.82
2023-04-10T01:42:24.301Z,3.78
2023-04-10T01:43:24.315Z,3.82
2023-04-10T01:44:24.324Z,3.81
2023-04-10T01:45:24.333Z,3.82
2023-04-10T01:46:24.395Z,3.84
2023-04-10T01:47:24.395Z,3.71
2023-04-10T01:48:24.369Z,3.70
2023-04-10T01:49:24.386Z,3.68
2023-04-10T01:50:24.452Z,3.71
2023-04-10T01:51:24.397Z,3.70
2023-04-10T01:52:24.407Z,3.63
2023-04-10T01:53:24.420Z,3.63
2023-04-10T01:54:24.429Z,3.63
2023-04-10T01:55:24.440Z,3.59
2023-04-10T01:56:24.448Z,3.59
2023-04-10T01:57:24.482Z,3.64
2023-04-10T01:58:24.464Z,3.63
2023-04-10T01:59:24.475Z,3.66
2023-04-10T02:00:24.538Z,3.64
2023-04-10T02:01:29.558Z,3.64
2023-04-10T02:02:24.725Z,3.63
2023-04-10T02:03:24.688Z,3.53
2023-04-10T02:04:24.589Z,3.56
2023-04-10T02:05:24.539Z,3.63
2023-04-10T02:06:24.548Z,3.55
2023-04-10T02:07:24.561Z,3.58
2023-04-10T02:08:24.573Z,3.49
2023-04-10T02:09:24.579Z,3.46
2023-04-10T02:10:24.607Z,3.50
2023-04-10T02:11:24.603Z,3.50
2023-04-10T02:12:24.610Z,3.46
2023-04-10T02:13:24.627Z,3.48
2023-04-10T02:14:24.644Z,3.49
2023-04-10T02:15:24.634Z,3.53
2023-04-10T02:16:24.690Z,3.48
2023-04-10T02:17:24.671Z,3.46
2023-04-10T02:18:24.667Z,3.50
2023-04-10T02:19:24.676Z,3.46
2023-04-10T02:20:24.704Z,3.45
2023-04-10T02:21:24.699Z,3.48
2023-04-10T02:22:24.718Z,3.41
2023-04-10T02:23:24.735Z,3.45
2023-04-10T02:24:24.735Z,3.50
2023-04-10T02:25:24.738Z,3.37
2023-04-10T02:26:24.750Z,3.41
2023-04-10T02:27:24.763Z,3.36
2023-04-10T02:28:24.769Z,3.36
2023-04-10T02:29:24.776Z,3.45
2023-04-10T02:30:24.786Z,3.41
2023-04-10T02:31:24.870Z,3.37
2023-04-10T02:32:24.843Z,3.43
2023-04-10T02:33:24.821Z,3.40
2023-04-10T02:34:24.829Z,3.29
2023-04-10T02:35:24.837Z,3.29
2023-04-10T02:36:24.851Z,3.37
2023-04-10T02:37:24.855Z,3.30
2023-04-10T02:38:24.867Z,3.27
2023-04-10T02:39:24.882Z,3.19
2023-04-10T02:40:24.891Z,3.30
2023-04-10T02:41:24.895Z,3.24
2023-04-10T02:42:24.907Z,3.16
2023-04-10T02:43:24.912Z,3.24
2023-04-10T02:44:24.925Z,3.26
2023-04-10T02:45:24.946Z,3.18
2023-04-10T02:46:24.981Z,3.18
2023-04-10T02:47:24.987Z,3.18
2023-04-10T02:48:24.968Z,3.19
2023-04-10T02:49:24.977Z,3.16
2023-04-10T02:50:24.990Z,3.19
2023-04-10T02:51:24.995Z,3.08
2023-04-10T02:52:25.005Z,3.15
2023-04-10T02:53:25.017Z,3.13
2023-04-10T02:54:25.025Z,3.11
2023-04-10T02:55:25.036Z,3.09
2023-04-10T02:56:25.044Z,3.08
2023-04-10T02:57:25.052Z,3.05
2023-04-10T02:58:25.063Z,3.12
2023-04-10T02:59:25.073Z,3.05
2023-04-10T03:00:25.083Z,3.12
2023-04-10T03:01:25.122Z,3.09
2023-04-10T03:02:25.260Z,3.09
2023-04-10T03:03:25.244Z,3.05
2023-04-10T03:04:25.318Z,2.98
2023-04-10T03:05:25.132Z,3.00
2023-04-10T03:06:25.146Z,3.03
2023-04-10T03:07:25.149Z,3.00
2023-04-10T03:08:25.162Z,2.95
2023-04-10T03:09:25.170Z,3.00
2023-04-10T03:10:25.198Z,3.05
2023-04-10T03:11:25.199Z,3.01
2023-04-10T03:12:25.203Z,3.05
2023-04-10T03:13:25.211Z,2.91
2023-04-10T03:14:25.220Z,2.98
2023-04-10T03:15:25.227Z,2.87
2023-04-10T03:16:25.308Z,2.94
2023-04-10T03:17:25.247Z,2.98
2023-04-10T03:18:25.259Z,3.00
2023-04-10T03:19:25.265Z,3.01
2023-04-10T03:20:25.276Z,3.03
2023-04-10T03:21:25.289Z,2.87
2023-04-10T03:22:25.309Z,2.88
2023-04-10T03:23:25.316Z,2.83
2023-04-10T03:24:25.315Z,2.98
2023-04-10T03:25:25.350Z,2.97
2023-04-10T03:26:25.336Z,2.94
2023-04-10T03:27:25.346Z,2.90
2023-04-10T03:28:25.354Z,3.00
2023-04-10T03:29:25.365Z,2.98
2023-04-10T03:30:25.378Z,2.94
2023-04-10T03:31:25.460Z,2.95
2023-04-10T03:32:25.389Z,2.90
2023-04-10T03:33:25.425Z,2.87
2023-04-10T03:34:25.412Z,2.87
2023-04-10T03:35:25.439Z,2.94
2023-04-10T03:36:25.434Z,2.88
2023-04-10T03:37:25.461Z,2.90
2023-04-10T03:38:25.447Z,2.94
2023-04-10T03:39:25.469Z,2.90
2023-04-10T03:40:25.467Z,2.88
2023-04-10T03:41:25.643Z,2.83
2023-04-10T03:42:25.484Z,2.82
2023-04-10T03:43:25.493Z,2.79
2023-04-10T03:44:25.510Z,2.90
2023-04-10T03:45:25.513Z,2.83
2023-04-10T03:46:25.569Z,2.88
2023-04-10T03:47:25.563Z,2.77
2023-04-10T03:48:25.545Z,2.83
2023-04-10T03:49:25.562Z,2.83
2023-04-10T03:50:25.568Z,2.82
2023-04-10T03:51:25.573Z,2.80
2023-04-10T03:52:25.581Z,2.83
2023-04-10T03:53:25.591Z,2.87
2023-04-10T03:54:25.603Z,2.76
2023-04-10T03:55:25.608Z,2.77
2023-04-10T03:56:25.618Z,2.76
2023-04-10T03:57:25.627Z,2.82
2023-04-10T03:58:25.656Z,2.79
2023-04-10T03:59:37.292Z,2.80
2023-04-10T04:00:25.656Z,2.75
2023-04-10T04:01:25.666Z,2.79
2023-04-10T04:02:25.739Z,2.79
2023-04-10T04:03:25.823Z,2.75
2023-04-10T04:04:25.770Z,2.72
2023-04-10T04:05:25.701Z,2.72
2023-04-10T04:06:25.711Z,2.64
2023-04-10T04:07:25.736Z,2.76
2023-04-10T04:08:25.748Z,2.75
2023-04-10T04:09:25.750Z,2.72
2023-04-10T04:10:25.752Z,2.69
2023-04-10T04:11:25.796Z,2.76
2023-04-10T04:12:25.762Z,2.65
2023-04-10T04:13:25.779Z,2.75
2023-04-10T04:14:25.785Z,2.73
2023-04-10T04:15:25.796Z,2.72
2023-04-10T04:16:25.827Z,2.73
2023-04-10T04:17:25.856Z,2.69
2023-04-10T04:18:25.830Z,2.76
2023-04-10T04:19:25.848Z,2.72
2023-04-10T04:20:25.842Z,2.73
2023-04-10T04:21:25.850Z,2.68
2023-04-10T04:22:25.866Z,2.70
2023-04-10T04:23:25.869Z,2.75
2023-04-10T04:24:25.878Z,2.73
2023-04-10T04:25:25.891Z,2.70
2023-04-10T04:26:25.898Z,2.75
2023-04-10T04:27:25.913Z,2.72
2023-04-10T04:28:26.150Z,2.77
2023-04-10T04:29:25.936Z,2.77
2023-04-10T04:30:25.936Z,2.73
2023-04-10T04:31:25.980Z,2.76
2023-04-10T04:32:25.967Z,2.72
2023-04-10T04:33:25.992Z,2.75
2023-04-10T04:34:25.975Z,2.72
2023-04-10T04:35:25.986Z,2.75
2023-04-10T04:36:25.996Z,2.73
2023-04-10T04:37:26.012Z,2.75
2023-04-10T04:38:26.013Z,2.77
2023-04-10T04:39:26.035Z,2.82
2023-04-10T04:40:26.033Z,2.87
2023-04-10T04:41:26.050Z,2.80
2023-04-10T04:42:26.068Z,2.82
2023-04-10T04:43:26.092Z,2.83
2023-04-10T04:44:26.075Z,2.82
2023-04-10T04:45:26.081Z,2.83
2023-04-10T04:46:26.261Z,2.85
2023-04-10T04:47:26.123Z,2.85
2023-04-10T04:48:26.116Z,2.91
2023-04-10T04:49:26.125Z,2.94
2023-04-10T04:50:26.143Z,2.93
2023-04-10T04:51:26.141Z,2.97
2023-04-10T04:52:26.148Z,2.95
2023-04-10T04:53:26.170Z,2.94
2023-04-10T04:54:26.166Z,3.01
2023-04-10T04:55:26.176Z,2.95
2023-04-10T04:56:26.195Z,2.95
2023-04-10T04:57:26.202Z,2.97
2023-04-10T04:58:26.208Z,2.98
2023-04-10T04:59:26.214Z,2.97
2023-04-10T05:00:26.225Z,2.97
2023-04-10T05:01:26.268Z,3.06
2023-04-10T05:02:26.374Z,3.08
2023-04-10T05:03:26.367Z,3.03
2023-04-10T05:04:26.467Z,3.01
2023-04-10T05:05:26.282Z,3.06
2023-04-10T05:06:26.281Z,3.11
2023-04-10T05:07:26.290Z,3.16
2023-04-10T05:08:26.301Z,3.11
2023-04-10T05:09:26.311Z,3.24
2023-04-10T05:10:26.327Z,3.19
2023-04-10T05:11:26.331Z,3.30
2023-04-10T05:12:26.347Z,3.24
2023-04-10T05:13:26.353Z,3.27
2023-04-10T05:14:26.362Z,3.29
2023-04-10T05:15:26.381Z,3.40
2023-04-10T05:16:26.379Z,3.37
2023-04-10T05:17:26.410Z,3.48
2023-04-10T05:18:26.461Z,3.52
2023-04-10T05:19:26.414Z,3.50
2023-04-10T05:20:26.419Z,3.49
2023-04-10T05:21:26.435Z,3.56
2023-04-10T05:22:26.441Z,3.63
2023-04-10T05:23:26.452Z,3.66
2023-04-10T05:24:26.461Z,3.71
2023-04-10T05:25:26.473Z,3.78
2023-04-10T05:26:26.481Z,3.84
2023-04-10T05:27:26.495Z,3.82
2023-04-10T05:28:26.504Z,3.91
2023-04-10T05:29:26.523Z,3.95
2023-04-10T05:30:26.523Z,4.02
2023-04-10T05:31:26.623Z,4.02
2023-04-10T05:32:26.560Z,4.02
2023-04-10T05:33:26.554Z,4.16
2023-04-10T05:34:26.567Z,4.24
2023-04-10T05:35:26.577Z,4.32
2023-04-10T05:36:26.588Z,4.28
2023-04-10T05:37:26.601Z,4.34
2023-04-10T05:38:26.613Z,4.30
2023-04-10T05:39:26.627Z,4.42
2023-04-10T05:40:26.633Z,4.49
2023-04-10T05:41:26.654Z,4.53
2023-04-10T05:42:26.656Z,4.60
2023-04-10T05:43:26.679Z,4.58
2023-04-10T05:44:26.676Z,4.79
2023-04-10T05:45:26.691Z,4.84
2023-04-10T05:46:26.787Z,4.95
2023-04-10T05:47:26.732Z,4.97
2023-04-10T05:48:26.724Z,5.00
2023-04-10T05:49:26.764Z,5.10
2023-04-10T05:50:27.310Z,5.13
2023-04-10T05:51:26.757Z,5.15
2023-04-10T05:52:26.771Z,5.33
2023-04-10T05:53:26.784Z,5.29
2023-04-10T05:54:26.799Z,5.49
2023-04-10T05:55:26.810Z,5.54
2023-04-10T05:56:26.816Z,5.58
2023-04-10T05:57:26.829Z,5.61
2023-04-10T05:58:26.843Z,5.67
2023-04-10T05:59:26.854Z,5.74
2023-04-10T06:00:26.888Z,5.88
2023-04-10T06:01:26.878Z,5.95
2023-04-10T06:02:27.064Z,6.02
2023-04-10T06:03:27.005Z,6.07
2023-04-10T06:04:27.057Z,6.20
2023-04-10T06:05:26.982Z,6.29
2023-04-10T06:06:26.945Z,6.28
2023-04-10T06:07:26.958Z,6.41
2023-04-10T06:08:26.966Z,6.52
2023-04-10T06:09:26.986Z,6.57
2023-04-10T06:10:26.994Z,6.77
2023-04-10T06:11:27.008Z,6.78
2023-04-10T06:12:27.015Z,6.87
2023-04-10T06:13:27.034Z,6.92
2023-04-10T06:14:27.042Z,6.95
2023-04-10T06:15:27.071Z,7.08
2023-04-10T06:16:27.165Z,7.11
2023-04-10T06:17:27.082Z,7.19
2023-04-10T06:18:27.095Z,7.23
2023-04-10T06:19:27.109Z,7.23
2023-04-10T06:20:27.126Z,7.43
2023-04-10T06:21:27.136Z,7.36
2023-04-10T06:22:27.151Z,7.48
2023-04-10T06:23:27.162Z,7.50
2023-04-10T06:24:27.173Z,7.67
2023-04-10T06:25:27.380Z,7.59
2023-04-10T06:26:27.208Z,7.67
2023-04-10T06:27:27.216Z,7.69
2023-04-10T06:28:27.252Z,7.70
2023-04-10T06:29:27.247Z,7.78
2023-04-10T06:30:27.284Z,7.74
2023-04-10T06:31:27.355Z,7.77
2023-04-10T06:32:27.307Z,7.88
2023-04-10T06:33:27.316Z,7.98
2023-04-10T06:34:27.328Z,7.96
2023-04-10T06:35:27.330Z,7.98
2023-04-10T06:36:27.345Z,7.98
2023-04-10T06:37:27.357Z,8.02
2023-04-10T06:38:27.374Z,8.03
2023-04-10T06:39:27.385Z,8.05
2023-04-10T06:40:27.403Z,8.05
2023-04-10T06:41:27.424Z,8.13
2023-04-10T06:42:27.433Z,8.18
2023-04-10T06:43:27.444Z,8.26
2023-04-10T06:44:27.458Z,8.31
2023-04-10T06:45:27.482Z,8.26
2023-04-10T06:46:27.510Z,8.31
2023-04-10T06:47:27.533Z,8.36
2023-04-10T06:48:27.514Z,8.44
2023-04-10T06:49:27.529Z,8.53
2023-04-10T06:50:27.596Z,8.56
2023-04-10T06:51:27.731Z,8.64
2023-04-10T06:52:27.613Z,8.57
2023-04-10T06:53:27.589Z,8.71
2023-04-10T06:54:27.604Z,8.69
2023-04-10T06:55:27.620Z,8.89
2023-04-10T06:56:27.631Z,8.87
2023-04-10T06:57:27.656Z,8.86
2023-04-10T06:58:27.668Z,8.99
2023-04-10T06:59:27.675Z,8.95
2023-04-10T07:00:27.799Z,9.00
2023-04-10T07:01:27.727Z,9.03
2023-04-10T07:02:27.783Z,9.13
2023-04-10T07:03:27.753Z,9.03
2023-04-10T07:04:27.749Z,9.19
2023-04-10T07:05:27.769Z,9.19
2023-04-10T07:06:27.881Z,9.30
2023-04-10T07:07:27.800Z,9.36
2023-04-10T07:08:27.809Z,9.31
2023-04-10T07:09:27.839Z,9.44
2023-04-10T07:10:27.846Z,9.48
2023-04-10T07:11:27.852Z,9.47
2023-04-10T07:12:27.868Z,9.48
2023-04-10T07:13:27.887Z,9.59
2023-04-10T07:14:27.899Z,9.70
2023-04-10T07:15:27.918Z,9.76
2023-04-10T07:16:27.968Z,9.76
2023-04-10T07:17:28.001Z,9.82
2023-04-10T07:18:27.978Z,9.91
2023-04-10T07:19:27.983Z,10.00
2023-04-10T07:20:27.996Z,10.09
2023-04-10T07:21:28.035Z,10.17
2023-04-10T07:22:28.030Z,10.30
2023-04-10T07:23:28.044Z,10.36
2023-04-10T07:24:28.081Z,10.51
2023-04-10T07:25:28.076Z,10.64
2023-04-10T07:26:28.085Z,10.72
2023-04-10T07:27:28.135Z,10.89
2023-04-10T07:28:28.134Z,10.98
2023-04-10T07:29:28.169Z,11.15
2023-04-10T07:30:28.151Z,11.27
2023-04-10T07:31:28.252Z,11.43
2023-04-10T07:32:28.356Z,11.62
2023-04-10T07:33:28.277Z,11.68
2023-04-10T07:34:28.211Z,11.80
2023-04-10T07:35:28.230Z,11.89
2023-04-10T07:36:28.249Z,11.99
2023-04-10T07:37:28.263Z,12.23
2023-04-10T07:38:28.283Z,12.29
2023-04-10T07:39:28.300Z,12.47
2023-04-10T07:40:28.315Z,12.66
2023-04-10T07:41:28.334Z,12.81
2023-04-10T07:42:28.350Z,12.87
2023-04-10T07:43:28.371Z,12.99
2023-04-10T07:44:28.388Z,13.13
2023-04-10T07:45:28.468Z,13.24
2023-04-10T07:46:28.423Z,13.23
2023-04-10T07:47:28.496Z,13.40
2023-04-10T07:48:28.466Z,13.52
2023-04-10T07:49:28.479Z,13.64
2023-04-10T07:50:28.502Z,13.78
2023-04-10T07:51:28.512Z,13.89
2023-04-10T07:52:28.535Z,13.93
2023-04-10T07:53:28.551Z,13.93
2023-04-10T07:54:28.580Z,13.97
2023-04-10T07:55:28.606Z,13.94
2023-04-10T07:56:28.611Z,14.01
2023-04-10T07:57:28.633Z,14.00
2023-04-10T07:58:28.651Z,13.97
2023-04-10T07:59:28.681Z,13.93
2023-04-10T08:00:28.687Z,13.70
2023-04-10T08:01:28.700Z,13.62
2023-04-10T08:02:28.948Z,13.55
2023-04-10T08:03:28.885Z,13.61
2023-04-10T08:04:28.900Z,13.47
2023-04-10T08:05:28.824Z,13.36
2023-04-10T08:06:28.795Z,13.31
2023-04-10T08:07:28.818Z,13.13
2023-04-10T08:08:28.828Z,13.13
2023-04-10T08:09:28.862Z,13.02
2023-04-10T08:10:28.865Z,12.95
2023-04-10T08:11:28.883Z,12.81
2023-04-10T08:12:28.908Z,12.90
2023-04-10T08:13:28.918Z,12.78
2023-04-10T08:14:28.940Z,12.72
2023-04-10T08:15:28.963Z,12.80
2023-04-10T08:16:28.998Z,12.76
2023-04-10T08:17:29.036Z,12.75
2023-04-10T08:18:29.023Z,12.75
2023-04-10T08:19:29.030Z,12.81
2023-04-10T08:20:29.041Z,12.75
2023-04-10T08:21:29.078Z,12.69
2023-04-10T08:22:29.080Z,12.69
2023-04-10T08:23:29.093Z,12.65
2023-04-10T08:24:29.111Z,12.65
2023-04-10T08:25:29.134Z,12.69
2023-04-10T08:26:29.159Z,12.69
2023-04-10T08:27:29.172Z,12.69
2023-04-10T08:28:29.180Z,12.69
2023-04-10T08:29:29.223Z,12.65
2023-04-10T08:30:29.296Z,12.66
2023-04-10T08:31:29.325Z,12.69
2023-04-10T08:32:29.272Z,12.63
2023-04-10T08:33:29.271Z,12.69
2023-04-10T08:34:29.284Z,12.63
2023-04-10T08:35:29.306Z,12.54
2023-04-10T08:36:29.330Z,12.69
2023-04-10T08:37:29.345Z,12.63
2023-04-10T08:38:29.360Z,12.62
2023-04-10T08:39:29.371Z,12.65
2023-04-10T08:40:29.403Z,12.65
2023-04-10T08:41:29.420Z,12.70
2023-04-10T08:42:29.425Z,12.62
2023-04-10T08:43:29.454Z,12.66
2023-04-10T08:44:29.459Z,12.63
2023-04-10T08:45:29.485Z,12.69
2023-04-10T08:46:29.555Z,12.69
2023-04-10T08:47:29.573Z,12.76
2023-04-10T08:48:29.538Z,12.75
2023-04-10T08:49:29.543Z,12.80
2023-04-10T08:50:29.567Z,12.81
2023-04-10T08:51:29.578Z,12.75
2023-04-10T08:52:29.603Z,12.75
2023-04-10T08:53:29.611Z,12.78
2023-04-10T08:54:29.640Z,12.81
2023-04-10T08:55:29.660Z,12.84
2023-04-10T08:56:29.677Z,12.68
2023-04-10T08:57:29.677Z,12.81
2023-04-10T08:58:29.697Z,12.76
2023-04-10T08:59:29.713Z,12.80
2023-04-10T09:00:29.735Z,12.86
2023-04-10T09:01:29.785Z,12.93
2023-04-10T09:02:29.947Z,12.94
2023-04-10T09:03:29.915Z,13.03
2023-04-10T09:04:29.895Z,13.02
2023-04-10T09:05:29.820Z,13.06
2023-04-10T09:06:29.839Z,12.95
2023-04-10T09:07:29.878Z,13.13
2023-04-10T09:08:29.871Z,13.09
2023-04-10T09:09:29.904Z,13.17
2023-04-10T09:10:29.901Z,13.26
2023-04-10T09:11:29.917Z,13.13
2023-04-10T09:12:29.957Z,13.21
2023-04-10T09:13:29.955Z,13.27
2023-04-10T09:14:30.004Z,13.21
2023-04-10T09:15:29.990Z,13.31
2023-04-10T09:16:30.166Z,13.43
2023-04-10T09:17:30.057Z,13.39
2023-04-10T09:18:30.040Z,13.33
2023-04-10T09:19:30.063Z,13.46
2023-04-10T09:20:30.075Z,13.49
2023-04-10T09:21:30.102Z,13.50
2023-04-10T09:22:30.113Z,13.55
2023-04-10T09:23:30.138Z,13.57
2023-04-10T09:24:30.145Z,13.54
2023-04-10T09:25:30.166Z,13.61
2023-04-10T09:26:30.187Z,13.62
2023-04-10T09:27:30.208Z,13.60
2023-04-10T09:28:30.253Z,13.82
2023-04-10T09:29:30.237Z,13.79
2023-04-10T09:30:30.265Z,13.82
2023-04-10T09:31:30.298Z,13.79
2023-04-10T09:32:30.304Z,13.86
2023-04-10T09:33:30.413Z,13.83
2023-04-10T09:34:30.325Z,13.91
2023-04-10T09:35:30.353Z,13.98
2023-04-10T09:36:30.378Z,13.82
2023-04-10T09:37:30.378Z,13.93
2023-04-10T09:38:30.416Z,13.91
2023-04-10T09:39:30.414Z,13.95
2023-04-10T09:40:30.431Z,13.98
2023-04-10T09:41:30.451Z,13.97
2023-04-10T09:42:30.468Z,13.87
2023-04-10T09:43:30.487Z,13.97
2023-04-10T09:44:30.519Z,13.87
2023-04-10T09:45:30.523Z,13.91
2023-04-10T09:46:30.642Z,13.97
2023-04-10T09:47:30.572Z,14.07
2023-04-10T09:48:30.580Z,14.07
2023-04-10T09:49:30.636Z,14.15
2023-04-10T09:50:31.889Z,14.13
2023-04-10T09:51:30.631Z,14.13
2023-04-10T09:52:30.650Z,14.22
2023-04-10T09:53:30.669Z,14.20
2023-04-10T09:54:30.686Z,14.23
2023-04-10T09:55:30.704Z,14.22
2023-04-10T09:56:30.721Z,14.33
2023-04-10T09:57:30.785Z,14.34
2023-04-10T09:58:30.764Z,14.49
2023-04-10T09:59:30.775Z,14.44
2023-04-10T10:00:30.793Z,14.59
2023-04-10T10:01:30.854Z,14.55
2023-04-10T10:02:30.972Z,14.58
2023-04-10T10:03:30.954Z,14.67
2023-04-10T10:04:30.888Z,14.61
2023-04-10T10:05:30.891Z,14.67
2023-04-10T10:06:30.911Z,14.74
2023-04-10T10:07:30.930Z,14.74
2023-04-10T10:08:30.941Z,14.79
2023-04-10T10:09:30.963Z,14.89
2023-04-10T10:10:30.978Z,14.90
2023-04-10T10:11:31.000Z,14.93
2023-04-10T10:12:31.020Z,14.90
2023-04-10T10:13:31.036Z,14.96
2023-04-10T10:14:31.057Z,14.99
2023-04-10T10:15:31.085Z,15.02
2023-04-10T10:16:31.137Z,15.14
2023-04-10T10:17:31.121Z,15.07
2023-04-10T10:18:31.136Z,15.05
2023-04-10T10:19:31.171Z,15.23
2023-04-10T10:20:31.171Z,15.17
2023-04-10T10:21:31.186Z,15.25
2023-04-10T10:22:31.208Z,15.29
2023-04-10T10:23:31.225Z,15.36
2023-04-10T10:24:31.249Z,15.35
2023-04-10T10:25:31.269Z,15.18
2023-04-10T10:26:31.288Z,15.30
2023-04-10T10:27:31.303Z,15.35
2023-04-10T10:28:31.323Z,15.37
2023-04-10T10:29:31.342Z,15.36
2023-04-10T10:30:31.415Z,15.44
2023-04-10T10:31:31.393Z,15.52
2023-04-10T10:32:31.477Z,15.44
2023-04-10T10:33:31.421Z,15.50
2023-04-10T10:34:31.439Z,15.55
2023-04-10T10:35:31.460Z,15.62
2023-04-10T10:36:31.536Z,15.59
2023-04-10T10:37:31.500Z,15.66
2023-04-10T10:38:31.524Z,15.72
2023-04-10T10:39:31.543Z,15.75
2023-04-10T10:40:31.571Z,15.91
2023-04-10T10:41:31.609Z,16.17
2023-04-10T10:42:31.607Z,16.22
2023-04-10T10:43:31.637Z,16.32
2023-04-10T10:44:31.646Z,16.47
2023-04-10T10:45:31.699Z,16.72
2023-04-10T10:46:31.691Z,16.83
2023-04-10T10:47:31.753Z,17.07
2023-04-10T10:48:31.749Z,17.17
2023-04-10T10:49:31.756Z,17.42
2023-04-10T10:50:31.790Z,17.44
2023-04-10T10:51:31.814Z,17.54
2023-04-10T10:52:31.831Z,17.79
2023-04-10T10:53:31.845Z,17.90
2023-04-10T10:54:31.887Z,18.03
2023-04-10T10:55:31.893Z,18.19
2023-04-10T10:56:31.919Z,18.34
2023-04-10T10:57:31.946Z,18.61
2023-04-10T10:58:31.971Z,18.88
2023-04-10T10:59:31.999Z,18.96
2023-04-10T11:00:32.021Z,19.34
2023-04-10T11:01:32.080Z,19.41
2023-04-10T11:02:32.219Z,19.37
2023-04-10T11:03:32.300Z,19.42
2023-04-10T11:04:32.125Z,19.38
2023-04-10T11:05:32.160Z,19.60
2023-04-10T11:06:32.186Z,19.79
2023-04-10T11:07:32.225Z,19.84
2023-04-10T11:08:32.234Z,19.99
2023-04-10T11:09:32.260Z,20.11
2023-04-10T11:10:34.622Z,20.30
2023-04-10T11:11:32.318Z,20.49
2023-04-10T11:12:32.339Z,20.66
2023-04-10T11:13:32.366Z,20.74
2023-04-10T11:14:32.399Z,20.98
2023-04-10T11:15:32.421Z,21.15
2023-04-10T11:16:32.479Z,21.29
2023-04-10T11:17:32.508Z,21.32
2023-04-10T11:18:32.505Z,21.56
2023-04-10T11:19:32.534Z,21.60
2023-04-10T11:20:32.562Z,21.65
2023-04-10T11:21:32.587Z,21.75
2023-04-10T11:22:32.626Z,21.80
2023-04-10T11:23:32.647Z,21.96
2023-04-10T11:24:32.680Z,22.04
2023-04-10T11:25:32.700Z,21.97
2023-04-10T11:26:32.729Z,22.04
2023-04-10T11:27:32.758Z,22.06
2023-04-10T11:28:32.788Z,22.06
2023-04-10T11:29:32.812Z,21.94
2023-04-10T11:30:32.842Z,21.94
2023-04-10T11:31:32.927Z,22.03
2023-04-10T11:32:32.958Z,21.94
2023-04-10T11:33:32.939Z,22.07
2023-04-10T11:34:32.964Z,22.12
2023-04-10T11:35:33.141Z,22.30
2023-04-10T11:36:33.015Z,22.30
2023-04-10T11:37:33.040Z,22.52
2023-04-10T11:38:33.072Z,22.53
2023-04-10T11:39:33.101Z,22.59
2023-04-10T11:40:33.126Z,22.58
2023-04-10T11:41:33.156Z,22.67
2023-04-10T11:42:33.184Z,22.77
2023-04-10T11:43:33.211Z,22.84
2023-04-10T11:44:33.241Z,22.93
2023-04-10T11:45:33.342Z,23.01
2023-04-10T11:46:33.338Z,23.26
2023-04-10T11:47:33.369Z,23.11
2023-04-10T11:48:33.361Z,23.26
2023-04-10T11:49:33.396Z,23.18
2023-04-10T11:50:33.416Z,23.21
2023-04-10T11:51:33.448Z,23.21
2023-04-10T11:52:33.480Z,23.25
2023-04-10T11:53:33.514Z,23.33
2023-04-10T11:54:33.541Z,23.40
2023-04-10T11:55:33.561Z,23.58
2023-04-10T11:56:33.590Z,23.70
2023-04-10T11:57:33.621Z,23.86
2023-04-10T11:58:33.662Z,23.81
2023-04-10T11:59:33.686Z,23.85
2023-04-10T12:00:33.710Z,23.85
2023-04-10T12:01:33.739Z,23.71
2023-04-10T12:02:33.863Z,23.81
2023-04-10T12:03:33.877Z,23.74
2023-04-10T12:04:34.072Z,23.84
2023-04-10T12:05:33.857Z,23.95
2023-04-10T12:06:33.884Z,23.77
2023-04-10T12:07:33.916Z,23.67
2023-04-10T12:08:33.966Z,23.37
2023-04-10T12:09:33.991Z,23.32
2023-04-10T12:10:33.999Z,23.21
2023-04-10T12:11:34.025Z,23.20
2023-04-10T12:12:34.056Z,23.26
2023-04-10T12:13:34.084Z,23.36
2023-04-10T12:14:34.133Z,23.26
2023-04-10T12:15:34.162Z,23.20
2023-04-10T12:16:34.169Z,23.08
2023-04-10T12:17:34.220Z,22.93
2023-04-10T12:18:34.226Z,22.96
2023-04-10T12:19:34.253Z,22.77
2023-04-10T12:20:34.282Z,22.67
2023-04-10T12:21:34.314Z,22.47
2023-04-10T12:22:34.337Z,22.34
2023-04-10T12:23:34.366Z,22.28
2023-04-10T12:24:34.399Z,22.14
2023-04-10T12:25:34.422Z,22.07
2023-04-10T12:26:34.452Z,21.89
2023-04-10T12:27:34.478Z,21.65
2023-04-10T12:28:34.506Z,21.54
2023-04-10T12:29:34.529Z,21.30
2023-04-10T12:30:34.556Z,21.17
2023-04-10T12:31:34.674Z,21.11
2023-04-10T12:32:34.635Z,21.07
2023-04-10T12:33:34.645Z,20.86
2023-04-10T12:34:34.662Z,20.86
2023-04-10T12:35:34.709Z,20.74
2023-04-10T12:36:34.731Z,20.68
2023-04-10T12:37:34.749Z,20.58
2023-04-10T12:38:34.765Z,20.46
2023-04-10T12:39:34.788Z,20.34
2023-04-10T12:40:34.819Z,20.33
2023-04-10T12:41:34.855Z,20.24
2023-04-10T12:42:34.860Z,20.22
2023-04-10T12:43:34.885Z,20.17
2023-04-10T12:44:34.911Z,20.22
2023-04-10T12:45:34.934Z,20.14
2023-04-10T12:46:34.974Z,20.07
2023-04-10T12:47:34.990Z,20.03
2023-04-10T12:48:35.006Z,19.99
2023-04-10T12:49:35.030Z,19.81
2023-04-10T12:50:35.059Z,19.64
2023-04-10T12:51:35.078Z,19.70
2023-04-10T12:52:35.100Z,19.55
2023-04-10T12:53:35.125Z,19.59
2023-04-10T12:54:35.157Z,19.44
2023-04-10T12:55:35.173Z,19.35
2023-04-10T12:56:35.194Z,19.37
2023-04-10T12:57:35.217Z,19.23
2023-04-10T12:58:35.241Z,19.19
2023-04-10T12:59:35.263Z,19.09
2023-04-10T13:00:35.284Z,19.08
2023-04-10T13:01:35.390Z,19.09
2023-04-10T13:02:35.570Z,18.98
2023-04-10T13:03:35.462Z,18.98
2023-04-10T13:04:35.417Z,18.83
2023-04-10T13:05:35.398Z,18.78
2023-04-10T13:06:36.250Z,18.73